sensor_id;sensor_type;location;lat;lon;timestamp;pressure;altitude;pressure_sealevel;temperature;humidity
44872;BME280;30602;51.060;17.226;2023-05-07T00:00:34;101961.28;;;8.22;100.00
44872;BME280;30602;51.060;17.226;2023-05-07T00:04:19;101962.13;;;8.15;100.00
44872;BME280;30602;51.060;17.226;2023-05-07T00:08:45;101960.11;;;8.15;100.00
44872;BME280;30602;51.060;17.226;2023-05-07T00:12:26;101964.08;;;8.08;100.00
44872;BME280;30602;51.060;17.226;2023-05-07T00:15:58;101966.79;;;7.98;100.00
44872;BME280;30602;51.060;17.226;2023-05-07T00:19:37;101967.86;;;7.98;100.00
44872;BME280;30602;51.060;17.226;2023-05-07T00:23:19;101968.41;;;7.86;100.00
44872;BME280;30602;51.060;17.226;2023-05-07T00:26:42;101971.40;;;7.91;100.00
44872;BME280;30602;51.060;17.226;2023-05-07T00:30:25;101970.38;;;8.00;100.00
44872;BME280;30602;51.060;17.226;2023-05-07T00:33:46;101968.20;;;8.13;100.00
44872;BME280;30602;51.060;17.226;2023-05-07T00:37:37;101971.40;;;8.15;100.00
44872;BME280;30602;51.060;17.226;2023-05-07T00:41:07;101974.12;;;8.17;100.00
44872;BME280;30602;51.060;17.226;2023-05-07T00:44:30;101978.98;;;8.29;100.00
44872;BME280;30602;51.060;17.226;2023-05-07T00:48:25;101976.16;;;8.32;100.00
44872;BME280;30602;51.060;17.226;2023-05-07T00:52:07;101976.30;;;7.99;100.00
44872;BME280;30602;51.060;17.226;2023-05-07T00:56:00;101975.41;;;7.95;100.00
44872;BME280;30602;51.060;17.226;2023-05-07T01:03:14;101987.95;;;7.85;100.00
44872;BME280;30602;51.060;17.226;2023-05-07T01:06:56;101986.10;;;7.82;100.00
44872;BME280;30602;51.060;17.226;2023-05-07T01:10:17;101982.62;;;7.93;100.00
44872;BME280;30602;51.060;17.226;2023-05-07T01:14:09;101986.17;;;8.01;100.00
44872;BME280;30602;51.060;17.226;2023-05-07T01:26:01;101993.59;;;8.21;100.00
44872;BME280;30602;51.060;17.226;2023-05-07T01:29:23;101992.32;;;8.20;100.00
44872;BME280;30602;51.060;17.226;2023-05-07T01:32:59;101990.43;;;8.11;100.00
44872;BME280;30602;51.060;17.226;2023-05-07T01:37:15;101987.77;;;8.00;100.00
44872;BME280;30602;51.060;17.226;2023-05-07T01:40:35;101995.09;;;7.84;100.00
44872;BME280;30602;51.060;17.226;2023-05-07T01:43:54;101995.42;;;7.83;100.00
44872;BME280;30602;51.060;17.226;2023-05-07T01:47:47;101996.68;;;7.79;100.00
44872;BME280;30602;51.060;17.226;2023-05-07T01:51:26;101996.95;;;7.83;100.00
44872;BME280;30602;51.060;17.226;2023-05-07T01:55:30;101998.25;;;7.83;100.00
44872;BME280;30602;51.060;17.226;2023-05-07T01:59:12;102002.07;;;7.73;100.00
44872;BME280;30602;51.060;17.226;2023-05-07T02:02:35;102001.61;;;7.93;100.00
44872;BME280;30602;51.060;17.226;2023-05-07T02:06:49;102000.95;;;8.06;100.00
44872;BME280;30602;51.060;17.226;2023-05-07T02:10:33;102004.05;;;7.90;100.00
44872;BME280;30602;51.060;17.226;2023-05-07T02:14:12;102005.69;;;7.74;100.00
44872;BME280;30602;51.060;17.226;2023-05-07T02:17:58;101991.08;;;7.58;100.00
44872;BME280;30602;51.060;17.226;2023-05-07T02:21:07;102010.34;;;7.63;100.00
44872;BME280;30602;51.060;17.226;2023-05-07T02:24:25;102008.66;;;7.63;100.00
44872;BME280;30602;51.060;17.226;2023-05-07T02:28:02;102009.67;;;7.55;100.00
44872;BME280;30602;51.060;17.226;2023-05-07T02:31:38;102006.25;;;7.52;100.00
44872;BME280;30602;51.060;17.226;2023-05-07T02:34:57;102008.83;;;7.58;100.00
44872;BME280;30602;51.060;17.226;2023-05-07T02:38:28;102011.88;;;7.57;100.00
44872;BME280;30602;51.060;17.226;2023-05-07T02:42:09;102010.57;;;7.60;100.00
44872;BME280;30602;51.060;17.226;2023-05-07T02:46:02;102010.58;;;7.54;100.00
44872;BME280;30602;51.060;17.226;2023-05-07T02:53:36;102019.96;;;7.62;100.00
44872;BME280;30602;51.060;17.226;2023-05-07T02:57:48;102022.63;;;7.46;100.00
44872;BME280;30602;51.060;17.226;2023-05-07T03:01:30;102027.66;;;7.41;100.00
44872;BME280;30602;51.060;17.226;2023-05-07T03:05:25;102028.09;;;7.38;100.00
44872;BME280;30602;51.060;17.226;2023-05-07T03:08:46;102025.82;;;7.26;100.00
44872;BME280;30602;51.060;17.226;2023-05-07T03:12:57;102035.62;;;7.52;100.00
44872;BME280;30602;51.060;17.226;2023-05-07T03:17:24;102031.48;;;7.40;100.00
44872;BME280;30602;51.060;17.226;2023-05-07T03:29:04;102044.59;;;7.64;100.00
44872;BME280;30602;51.060;17.226;2023-05-07T03:32:59;102051.20;;;7.58;100.00
44872;BME280;30602;51.060;17.226;2023-05-07T03:36:38;102056.95;;;7.48;100.00
44872;BME280;30602;51.060;17.226;2023-05-07T03:40:12;102063.21;;;7.36;100.00
44872;BME280;30602;51.060;17.226;2023-05-07T03:44:03;102062.41;;;7.29;100.00
44872;BME280;30602;51.060;17.226;2023-05-07T03:47:41;102060.37;;;7.31;100.00
44872;BME280;30602;51.060;17.226;2023-05-07T03:51:55;102064.16;;;7.35;100.00
44872;BME280;30602;51.060;17.226;2023-05-07T03:55:48;102070.54;;;7.39;100.00
44872;BME280;30602;51.060;17.226;2023-05-07T03:59:09;102075.73;;;7.37;100.00
44872;BME280;30602;51.060;17.226;2023-05-07T04:03:12;102085.18;;;7.38;100.00
44872;BME280;30602;51.060;17.226;2023-05-07T04:07:26;102066.84;;;7.26;100.00
44872;BME280;30602;51.060;17.226;2023-05-07T04:11:00;102097.53;;;7.32;100.00
44872;BME280;30602;51.060;17.226;2023-05-07T04:14:18;102098.85;;;7.38;100.00
44872;BME280;30602;51.060;17.226;2023-05-07T04:18:24;102103.16;;;7.31;100.00
44872;BME280;30602;51.060;17.226;2023-05-07T04:21:56;102112.96;;;7.26;100.00
44872;BME280;30602;51.060;17.226;2023-05-07T04:25:48;102114.80;;;7.30;100.00
44872;BME280;30602;51.060;17.226;2023-05-07T04:29:27;102114.91;;;7.45;100.00
44872;BME280;30602;51.060;17.226;2023-05-07T04:33:09;102119.25;;;7.55;100.00
44872;BME280;30602;51.060;17.226;2023-05-07T04:36:59;102119.70;;;7.66;100.00
44872;BME280;30602;51.060;17.226;2023-05-07T04:40:51;102122.78;;;7.49;100.00
44872;BME280;30602;51.060;17.226;2023-05-07T04:44:35;102132.48;;;7.60;100.00
44872;BME280;30602;51.060;17.226;2023-05-07T04:47:54;102124.49;;;7.46;100.00
44872;BME280;30602;51.060;17.226;2023-05-07T04:52:20;102137.43;;;7.49;100.00
44872;BME280;30602;51.060;17.226;2023-05-07T04:56:22;102142.73;;;7.56;100.00
44872;BME280;30602;51.060;17.226;2023-05-07T05:00:07;102149.16;;;7.60;100.00
44872;BME280;30602;51.060;17.226;2023-05-07T05:03:54;102152.25;;;7.55;100.00
44872;BME280;30602;51.060;17.226;2023-05-07T05:07:15;102156.33;;;7.55;99.99
44872;BME280;30602;51.060;17.226;2023-05-07T05:10:47;102156.57;;;7.73;99.48
44872;BME280;30602;51.060;17.226;2023-05-07T05:14:27;102160.08;;;7.77;99.22
44872;BME280;30602;51.060;17.226;2023-05-07T05:18:30;102166.95;;;7.85;98.32
44872;BME280;30602;51.060;17.226;2023-05-07T05:21:48;102170.40;;;7.75;98.90
44872;BME280;30602;51.060;17.226;2023-05-07T05:25:28;102176.93;;;7.72;99.17
44872;BME280;30602;51.060;17.226;2023-05-07T05:29:23;102179.70;;;7.58;99.67
44872;BME280;30602;51.060;17.226;2023-05-07T05:32:42;102186.58;;;7.51;99.84
44872;BME280;30602;51.060;17.226;2023-05-07T05:37:09;102191.62;;;7.56;99.38
44872;BME280;30602;51.060;17.226;2023-05-07T05:41:20;102193.65;;;7.65;98.73
44872;BME280;30602;51.060;17.226;2023-05-07T05:44:39;102187.22;;;7.78;98.74
44872;BME280;30602;51.060;17.226;2023-05-07T05:49:11;102188.56;;;7.90;98.62
44872;BME280;30602;51.060;17.226;2023-05-07T05:52:54;102188.23;;;7.91;97.17
44872;BME280;30602;51.060;17.226;2023-05-07T05:56:45;102187.25;;;7.93;96.74
44872;BME280;30602;51.060;17.226;2023-05-07T06:00:04;102191.25;;;7.96;97.08
44872;BME280;30602;51.060;17.226;2023-05-07T06:03:24;102195.05;;;7.93;97.13
44872;BME280;30602;51.060;17.226;2023-05-07T06:06:46;102197.51;;;8.02;97.90
44872;BME280;30602;51.060;17.226;2023-05-07T06:10:09;102198.08;;;7.84;96.41
44872;BME280;30602;51.060;17.226;2023-05-07T06:13:53;102193.15;;;7.82;96.08
44872;BME280;30602;51.060;17.226;2023-05-07T06:17:47;102198.59;;;7.96;95.09
44872;BME280;30602;51.060;17.226;2023-05-07T06:21:41;102200.67;;;8.11;94.71
44872;BME280;30602;51.060;17.226;2023-05-07T06:25:10;102211.30;;;8.13;94.21
44872;BME280;30602;51.060;17.226;2023-05-07T06:29:06;102206.66;;;8.07;93.22
44872;BME280;30602;51.060;17.226;2023-05-07T06:33:23;102158.47;;;7.59;93.58
44872;BME280;30602;51.060;17.226;2023-05-07T06:37:04;102224.85;;;7.86;94.95
44872;BME280;30602;51.060;17.226;2023-05-07T06:40:35;102238.35;;;7.70;95.16
44872;BME280;30602;51.060;17.226;2023-05-07T06:44:17;102241.76;;;7.58;95.67
44872;BME280;30602;51.060;17.226;2023-05-07T06:48:09;102248.73;;;7.45;96.10
44872;BME280;30602;51.060;17.226;2023-05-07T06:51:28;102253.20;;;7.46;94.71
44872;BME280;30602;51.060;17.226;2023-05-07T06:54:51;102254.02;;;7.40;93.57
44872;BME280;30602;51.060;17.226;2023-05-07T06:58:44;102237.33;;;7.28;93.60
44872;BME280;30602;51.060;17.226;2023-05-07T07:02:06;102259.03;;;7.60;94.24
44872;BME280;30602;51.060;17.226;2023-05-07T07:06:11;102260.74;;;7.77;93.04
44872;BME280;30602;51.060;17.226;2023-05-07T07:09:49;102256.80;;;8.03;91.28
44872;BME280;30602;51.060;17.226;2023-05-07T07:13:35;102255.48;;;8.23;90.07
44872;BME280;30602;51.060;17.226;2023-05-07T07:17:48;102258.60;;;8.29;90.07
44872;BME280;30602;51.060;17.226;2023-05-07T07:21:59;102261.69;;;8.27;88.34
44872;BME280;30602;51.060;17.226;2023-05-07T07:26:03;102270.43;;;8.11;88.66
44872;BME280;30602;51.060;17.226;2023-05-07T07:29:23;102275.23;;;8.16;90.63
44872;BME280;30602;51.060;17.226;2023-05-07T07:32:56;102279.20;;;8.10;91.19
44872;BME280;30602;51.060;17.226;2023-05-07T07:37:28;102287.30;;;7.97;91.64
44872;BME280;30602;51.060;17.226;2023-05-07T07:41:08;102296.89;;;7.99;92.59
44872;BME280;30602;51.060;17.226;2023-05-07T07:44:27;102302.21;;;8.05;91.08
44872;BME280;30602;51.060;17.226;2023-05-07T07:48:10;102219.97;;;7.49;91.57
44872;BME280;30602;51.060;17.226;2023-05-07T07:51:29;102313.86;;;8.00;91.45
44872;BME280;30602;51.060;17.226;2023-05-07T07:55:06;102283.87;;;7.64;91.96
44872;BME280;30602;51.060;17.226;2023-05-07T07:58:27;102333.69;;;7.72;92.16
44872;BME280;30602;51.060;17.226;2023-05-07T08:01:49;102334.50;;;7.62;92.09
44872;BME280;30602;51.060;17.226;2023-05-07T08:05:36;102333.07;;;7.58;91.28
44872;BME280;30602;51.060;17.226;2023-05-07T08:09:16;102327.59;;;7.78;92.50
44872;BME280;30602;51.060;17.226;2023-05-07T15:03:16;102529.60;;;9.26;79.92
44872;BME280;30602;51.060;17.226;2023-05-07T15:06:50;102520.92;;;9.42;78.26
44872;BME280;30602;51.060;17.226;2023-05-07T15:10:42;102515.30;;;9.63;77.96
44872;BME280;30602;51.060;17.226;2023-05-07T15:14:29;102522.36;;;9.73;76.40
44872;BME280;30602;51.060;17.226;2023-05-07T15:18:21;102521.08;;;9.75;75.68
44872;BME280;30602;51.060;17.226;2023-05-07T15:21:50;102507.69;;;9.88;76.66
44872;BME280;30602;51.060;17.226;2023-05-07T15:25:19;102523.40;;;10.02;76.64
44872;BME280;30602;51.060;17.226;2023-05-07T15:29:22;102525.21;;;10.39;76.97
44872;BME280;30602;51.060;17.226;2023-05-07T15:36:48;102527.49;;;10.57;73.22
44872;BME280;30602;51.060;17.226;2023-05-07T15:46:11;102525.13;;;10.41;73.58
44872;BME280;30602;51.060;17.226;2023-05-07T15:49:49;102514.91;;;10.23;74.74
44872;BME280;30602;51.060;17.226;2023-05-07T15:53:31;102522.64;;;10.06;74.85
44872;BME280;30602;51.060;17.226;2023-05-07T15:57:19;102526.10;;;9.92;75.61
44872;BME280;30602;51.060;17.226;2023-05-07T16:01:25;102521.00;;;9.88;75.84
44872;BME280;30602;51.060;17.226;2023-05-07T16:04:55;102519.85;;;9.88;75.32
44872;BME280;30602;51.060;17.226;2023-05-07T16:08:39;102516.86;;;10.06;75.26
44872;BME280;30602;51.060;17.226;2023-05-07T16:12:31;102519.62;;;10.04;75.49
44872;BME280;30602;51.060;17.226;2023-05-07T16:15:55;102522.23;;;10.01;74.86
44872;BME280;30602;51.060;17.226;2023-05-07T16:19:27;102525.55;;;9.83;75.95
44872;BME280;30602;51.060;17.226;2023-05-07T16:23:42;102532.91;;;9.78;76.33
44872;BME280;30602;51.060;17.226;2023-05-07T16:27:10;102531.87;;;9.75;76.06
44872;BME280;30602;51.060;17.226;2023-05-07T16:31:24;102535.94;;;9.62;75.30
44872;BME280;30602;51.060;17.226;2023-05-07T16:35:16;102538.02;;;9.52;76.41
44872;BME280;30602;51.060;17.226;2023-05-07T16:38:36;102539.70;;;9.53;77.44
44872;BME280;30602;51.060;17.226;2023-05-07T16:42:12;102542.40;;;9.48;76.76
44872;BME280;30602;51.060;17.226;2023-05-07T16:49:49;102542.93;;;9.64;76.14
44872;BME280;30602;51.060;17.226;2023-05-07T16:53:32;102518.70;;;9.68;76.36
44872;BME280;30602;51.060;17.226;2023-05-07T16:57:34;102539.16;;;9.72;75.70
44872;BME280;30602;51.060;17.226;2023-05-07T17:01:27;102539.54;;;9.72;75.03
44872;BME280;30602;51.060;17.226;2023-05-07T17:04:50;102547.18;;;9.54;75.71
44872;BME280;30602;51.060;17.226;2023-05-07T17:08:13;102550.35;;;9.48;77.58
44872;BME280;30602;51.060;17.226;2023-05-07T17:11:57;102550.38;;;9.37;77.65
44872;BME280;30602;51.060;17.226;2023-05-07T17:15:53;102549.22;;;9.31;77.69
44872;BME280;30602;51.060;17.226;2023-05-07T17:19:35;102554.05;;;9.26;78.41
44872;BME280;30602;51.060;17.226;2023-05-07T17:23:39;102539.82;;;9.33;77.45
44872;BME280;30602;51.060;17.226;2023-05-07T17:27:29;102567.36;;;9.38;77.93
44872;BME280;30602;51.060;17.226;2023-05-07T17:30:53;102557.23;;;9.41;79.29
44872;BME280;30602;51.060;17.226;2023-05-07T17:34:35;102567.82;;;9.64;79.42
44872;BME280;30602;51.060;17.226;2023-05-07T17:37:59;102572.11;;;9.44;77.61
44872;BME280;30602;51.060;17.226;2023-05-07T17:41:35;102573.34;;;9.32;78.15
44872;BME280;30602;51.060;17.226;2023-05-07T17:44:59;102573.41;;;9.35;78.66
44872;BME280;30602;51.060;17.226;2023-05-07T17:48:39;102565.92;;;9.13;78.76
44872;BME280;30602;51.060;17.226;2023-05-07T17:52:02;102569.21;;;9.05;80.02
44872;BME280;30602;51.060;17.226;2023-05-07T17:55:26;102573.98;;;9.02;80.09
44872;BME280;30602;51.060;17.226;2023-05-07T17:59:09;102513.44;;;8.66;79.72
44872;BME280;30602;51.060;17.226;2023-05-07T18:02:34;102566.53;;;8.93;79.09
44872;BME280;30602;51.060;17.226;2023-05-07T18:05:54;102584.14;;;9.10;78.44
44872;BME280;30602;51.060;17.226;2023-05-07T18:09:50;102578.19;;;9.23;78.51
44872;BME280;30602;51.060;17.226;2023-05-07T18:13:09;102586.16;;;9.18;77.58
44872;BME280;30602;51.060;17.226;2023-05-07T18:16:59;102589.91;;;9.04;78.25
44872;BME280;30602;51.060;17.226;2023-05-07T18:20:58;102595.92;;;8.97;78.38
44872;BME280;30602;51.060;17.226;2023-05-07T18:24:43;102598.20;;;8.83;78.74
44872;BME280;30602;51.060;17.226;2023-05-07T18:28:27;102595.35;;;8.80;78.44
44872;BME280;30602;51.060;17.226;2023-05-07T18:32:21;102604.49;;;8.83;79.76
44872;BME280;30602;51.060;17.226;2023-05-07T18:36:05;102607.57;;;8.78;79.20
44872;BME280;30602;51.060;17.226;2023-05-07T18:39:44;102606.34;;;8.85;78.17
44872;BME280;30602;51.060;17.226;2023-05-07T18:43:35;102610.50;;;8.98;78.12
44872;BME280;30602;51.060;17.226;2023-05-07T18:47:37;102619.96;;;9.04;78.44
44872;BME280;30602;51.060;17.226;2023-05-07T18:51:04;102619.99;;;8.88;78.22
44872;BME280;30602;51.060;17.226;2023-05-07T18:54:48;102625.56;;;8.84;79.24
44872;BME280;30602;51.060;17.226;2023-05-07T18:58:14;102627.88;;;8.90;79.68
44872;BME280;30602;51.060;17.226;2023-05-07T19:01:36;102627.58;;;8.78;79.66
44872;BME280;30602;51.060;17.226;2023-05-07T19:05:30;102640.78;;;8.71;79.56
44872;BME280;30602;51.060;17.226;2023-05-07T19:08:54;102639.61;;;8.67;80.49
44872;BME280;30602;51.060;17.226;2023-05-07T19:12:25;102644.55;;;8.63;80.12
44872;BME280;30602;51.060;17.226;2023-05-07T19:16:09;102648.48;;;8.98;78.97
44872;BME280;30602;51.060;17.226;2023-05-07T19:20:08;102650.99;;;8.93;78.68
44872;BME280;30602;51.060;17.226;2023-05-07T19:23:54;102651.08;;;8.91;78.75
44872;BME280;30602;51.060;17.226;2023-05-07T19:27:49;102661.30;;;8.77;77.69
44872;BME280;30602;51.060;17.226;2023-05-07T19:31:23;102665.78;;;8.78;77.98
44872;BME280;30602;51.060;17.226;2023-05-07T19:34:52;102665.92;;;8.76;78.80
44872;BME280;30602;51.060;17.226;2023-05-07T19:38:20;102669.88;;;8.59;77.52
44872;BME280;30602;51.060;17.226;2023-05-07T19:42:09;102673.12;;;8.47;78.78
44872;BME280;30602;51.060;17.226;2023-05-07T19:45:33;102673.90;;;8.58;78.55
44872;BME280;30602;51.060;17.226;2023-05-07T19:49:09;102676.11;;;8.81;78.68
44872;BME280;30602;51.060;17.226;2023-05-07T19:52:35;102678.60;;;8.90;77.56
44872;BME280;30602;51.060;17.226;2023-05-07T19:56:07;102674.29;;;8.98;77.92
44872;BME280;30602;51.060;17.226;2023-05-07T19:59:31;102681.43;;;8.70;75.23
44872;BME280;30602;51.060;17.226;2023-05-07T20:03:30;102689.70;;;8.65;74.18
44872;BME280;30602;51.060;17.226;2023-05-07T20:07:15;102682.41;;;8.62;76.51
44872;BME280;30602;51.060;17.226;2023-05-07T20:13:04;102687.57;;;8.44;75.64
44872;BME280;30602;51.060;17.226;2023-05-07T20:17:18;102691.42;;;8.36;75.73
44872;BME280;30602;51.060;17.226;2023-05-07T20:21:03;102694.05;;;8.29;75.48
44872;BME280;30602;51.060;17.226;2023-05-07T20:24:58;102691.25;;;8.54;75.92
44872;BME280;30602;51.060;17.226;2023-05-07T20:29:01;102691.71;;;8.51;76.12
44872;BME280;30602;51.060;17.226;2023-05-07T20:32:28;102696.01;;;8.50;74.76
44872;BME280;30602;51.060;17.226;2023-05-07T20:36:23;102695.24;;;8.54;75.51
44872;BME280;30602;51.060;17.226;2023-05-07T20:40:40;102703.55;;;8.42;75.87
44872;BME280;30602;51.060;17.226;2023-05-07T20:44:20;102703.03;;;8.20;74.04
44872;BME280;30602;51.060;17.226;2023-05-07T20:48:01;102703.36;;;8.24;74.78
44872;BME280;30602;51.060;17.226;2023-05-07T20:52:15;102701.33;;;8.07;71.52
44872;BME280;30602;51.060;17.226;2023-05-07T20:55:34;102708.94;;;8.00;70.52
44872;BME280;30602;51.060;17.226;2023-05-07T20:59:50;102707.96;;;7.96;70.85
44872;BME280;30602;51.060;17.226;2023-05-07T21:03:28;102709.13;;;7.98;70.53
44872;BME280;30602;51.060;17.226;2023-05-07T21:06:59;102715.30;;;8.13;70.83
44872;BME280;30602;51.060;17.226;2023-05-07T21:10:51;102717.67;;;7.81;70.57
44872;BME280;30602;51.060;17.226;2023-05-07T21:14:34;102726.41;;;7.71;71.42
44872;BME280;30602;51.060;17.226;2023-05-07T21:18:17;102729.65;;;7.65;72.81
44872;BME280;30602;51.060;17.226;2023-05-07T21:22:34;102731.46;;;7.56;73.11
44872;BME280;30602;51.060;17.226;2023-05-07T21:26:18;102732.95;;;7.44;73.79
44872;BME280;30602;51.060;17.226;2023-05-07T21:30:01;102732.77;;;7.26;74.90
44872;BME280;30602;51.060;17.226;2023-05-07T21:33:44;102734.20;;;7.32;74.92
44872;BME280;30602;51.060;17.226;2023-05-07T21:37:24;102741.21;;;7.13;75.78
44872;BME280;30602;51.060;17.226;2023-05-07T21:41:17;102743.93;;;7.05;76.58
44872;BME280;30602;51.060;17.226;2023-05-07T21:44:42;102743.70;;;6.89;77.79
44872;BME280;30602;51.060;17.226;2023-05-07T21:48:05;102748.09;;;6.58;79.31
44872;BME280;30602;51.060;17.226;2023-05-07T21:51:38;102751.66;;;6.24;81.50
44872;BME280;30602;51.060;17.226;2023-05-07T21:55:09;102747.80;;;5.98;83.20
44872;BME280;30602;51.060;17.226;2023-05-07T21:59:24;102748.06;;;5.74;84.41
44872;BME280;30602;51.060;17.226;2023-05-07T22:03:05;102749.65;;;5.52;85.52
44872;BME280;30602;51.060;17.226;2023-05-07T22:06:25;102750.94;;;5.49;85.25
44872;BME280;30602;51.060;17.226;2023-05-07T22:09:46;102750.07;;;5.32;86.19
44872;BME280;30602;51.060;17.226;2023-05-07T22:13:27;102747.83;;;5.27;86.39
44872;BME280;30602;51.060;17.226;2023-05-07T22:17:16;102750.91;;;5.26;86.07
44872;BME280;30602;51.060;17.226;2023-05-07T22:20:40;102744.86;;;5.12;86.56
44872;BME280;30602;51.060;17.226;2023-05-07T22:24:22;102749.34;;;5.03;87.38
44872;BME280;30602;51.060;17.226;2023-05-07T22:28:17;102751.71;;;4.89;88.30
44872;BME280;30602;51.060;17.226;2023-05-07T22:32:01;102746.34;;;4.76;88.93
44872;BME280;30602;51.060;17.226;2023-05-07T22:35:24;102746.25;;;4.66;89.65
44872;BME280;30602;51.060;17.226;2023-05-07T22:43:01;102742.98;;;4.49;90.61
44872;BME280;30602;51.060;17.226;2023-05-07T22:46:44;102735.87;;;4.56;90.87
44872;BME280;30602;51.060;17.226;2023-05-07T22:50:23;102732.63;;;4.48;90.93
44872;BME280;30602;51.060;17.226;2023-05-07T22:54:19;102727.10;;;4.28;91.69
44872;BME280;30602;51.060;17.226;2023-05-07T22:58:11;102732.02;;;4.25;91.51
44872;BME280;30602;51.060;17.226;2023-05-07T23:01:32;102736.62;;;4.20;91.76
44872;BME280;30602;51.060;17.226;2023-05-07T23:05:28;102738.23;;;4.02;92.21
44872;BME280;30602;51.060;17.226;2023-05-07T23:08:50;102739.52;;;3.90;92.54
44872;BME280;30602;51.060;17.226;2023-05-07T23:12:08;102739.72;;;3.87;92.79
44872;BME280;30602;51.060;17.226;2023-05-07T23:15:47;102742.03;;;3.84;93.24
44872;BME280;30602;51.060;17.226;2023-05-07T23:19:44;102736.17;;;3.88;93.05
44872;BME280;30602;51.060;17.226;2023-05-07T23:23:37;102747.51;;;3.94;92.43
44872;BME280;30602;51.060;17.226;2023-05-07T23:27:16;102745.48;;;4.01;92.41
44872;BME280;30602;51.060;17.226;2023-05-07T23:30:56;102750.94;;;3.90;92.56
44872;BME280;30602;51.060;17.226;2023-05-07T23:34:30;102750.43;;;3.79;92.76
44872;BME280;30602;51.060;17.226;2023-05-07T23:38:08;102746.18;;;3.70;93.05
44872;BME280;30602;51.060;17.226;2023-05-07T23:41:54;102744.83;;;3.49;92.43
44872;BME280;30602;51.060;17.226;2023-05-07T23:45:32;102747.03;;;3.38;93.48
44872;BME280;30602;51.060;17.226;2023-05-07T23:49:12;102747.84;;;3.27;93.88
44872;BME280;30602;51.060;17.226;2023-05-07T23:53:02;102741.81;;;3.08;95.53
44872;BME280;30602;51.060;17.226;2023-05-07T23:56:42;102738.43;;;3.02;96.16
